Terminal Aerodrome Forecast
Issued by NWS

Current Version | Previous Version | Text Only | Print | Product List | Glossary On
Versions: 1 2 3 4 5 6 7 8 9 10 11 12 13 14 15 16 17 18 19
000
FTUS42 KTAE 251720
TAFVLD
TAF
KVLD 251720Z 2518/2618 15009G14KT P6SM SCT040 BKN050
     FM260000 15006KT P6SM BKN050
     FM260900 14004KT 6SM BR BKN050
     FM261500 16009KT P6SM BKN050=

USA.gov is the U.S. government's official web portal to all federal, state and local government web resources and services.